createdAt,value
2018-09-22T00:02:31.549Z,13.87
2018-09-22T00:07:36.449Z,13.13
2018-09-22T00:12:42.017Z,13.33
2018-09-22T00:17:46.943Z,13.43
2018-09-22T00:22:52.581Z,14.23
2018-09-22T00:27:57.674Z,13.73
2018-09-22T00:33:02.702Z,14.90
2018-09-22T00:38:07.547Z,15.00
2018-09-22T00:43:12.456Z,14.67
2018-09-22T00:48:17.901Z,14.60
2018-09-22T00:53:22.824Z,15.20
2018-09-22T00:58:27.714Z,14.63
2018-09-22T01:03:32.660Z,14.43
2018-09-22T01:08:37.720Z,15.40
2018-09-22T01:13:42.709Z,15.30
2018-09-22T01:18:47.553Z,15.93
2018-09-22T01:23:52.533Z,16.10
2018-09-22T01:28:57.585Z,17.13
2018-09-22T01:34:02.516Z,16.70
2018-09-22T01:39:08.924Z,17.53
2018-09-22T01:44:13.765Z,16.27
2018-09-22T01:49:18.652Z,16.40
2018-09-22T01:54:23.701Z,15.20
2018-09-22T01:59:28.786Z,15.47
2018-09-22T02:04:33.783Z,16.63
2018-09-22T02:09:38.743Z,15.83
2018-09-22T02:14:43.608Z,16.17
2018-09-22T02:19:48.645Z,15.57
2018-09-22T02:24:54.030Z,14.80
2018-09-22T02:29:58.859Z,14.97
2018-09-22T02:35:03.770Z,15.70
2018-09-22T02:40:08.741Z,15.70
2018-09-22T02:45:13.613Z,15.00
2018-09-22T02:50:18.991Z,16.10
2018-09-22T02:55:24.024Z,15.17
2018-09-22T03:00:29.001Z,14.43
2018-09-22T03:05:33.898Z,15.20
2018-09-22T03:10:38.766Z,15.63
2018-09-22T03:15:43.750Z,14.27
2018-09-22T03:20:48.707Z,14.27
2018-09-22T03:25:53.663Z,14.90
2018-09-22T03:30:58.582Z,14.20
2018-09-22T03:36:03.446Z,14.80
2018-09-22T03:41:08.412Z,14.70
2018-09-22T03:46:13.323Z,14.20
2018-09-22T03:51:18.461Z,14.57
2018-09-22T03:56:23.799Z,14.47
2018-09-22T04:01:29.914Z,14.40
2018-09-22T04:06:34.857Z,15.17
2018-09-22T04:11:39.772Z,14.30
2018-09-22T04:16:44.633Z,14.13
2018-09-22T04:21:49.603Z,14.77
2018-09-22T04:26:54.586Z,16.17
2018-09-22T04:31:59.584Z,15.00
2018-09-22T04:37:04.576Z,14.47
2018-09-22T04:42:09.584Z,13.90
2018-09-22T04:47:14.547Z,14.80
2018-09-22T04:52:19.557Z,14.37
2018-09-22T04:57:24.405Z,15.80
2018-09-22T05:02:29.405Z,14.77
2018-09-22T05:07:34.288Z,15.43
2018-09-22T05:12:39.189Z,15.53
2018-09-22T05:17:44.078Z,15.57
2018-09-22T05:22:48.973Z,16.27
2018-09-22T05:27:53.989Z,16.67
2018-09-22T05:32:58.945Z,15.70
2018-09-22T05:38:03.976Z,15.87
2018-09-22T05:43:08.920Z,16.37
2018-09-22T05:48:13.964Z,17.93
2018-09-22T05:53:18.891Z,15.13
2018-09-22T05:58:24.579Z,17.93
2018-09-22T06:03:29.716Z,17.00
2018-09-22T06:08:34.725Z,17.20
2018-09-22T06:13:39.623Z,17.70
2018-09-22T06:18:44.657Z,16.33
2018-09-22T06:23:49.653Z,15.10
2018-09-22T06:28:54.586Z,15.50
2018-09-22T06:33:59.521Z,15.33
2018-09-22T06:39:06.004Z,16.23
2018-09-22T06:44:11.126Z,16.53
2018-09-22T06:49:16.084Z,15.83
2018-09-22T06:54:21.247Z,16.83
2018-09-22T06:59:26.262Z,18.20
2018-09-22T07:04:31.213Z,17.23
2018-09-22T07:09:36.211Z,17.03
2018-09-22T07:14:41.048Z,16.37
2018-09-22T07:19:46.065Z,17.70
2018-09-22T07:24:50.898Z,15.30
2018-09-22T07:29:55.920Z,14.27
2018-09-22T07:35:00.907Z,15.33
2018-09-22T07:40:06.224Z,13.53
2018-09-22T07:45:11.230Z,13.40
2018-09-22T07:50:17.271Z,16.40
2018-09-22T07:55:46.262Z,16.23
2018-09-22T08:00:52.785Z,22.07
2018-09-22T08:05:57.684Z,22.30
2018-09-22T08:11:02.728Z,24.47
2018-09-22T08:16:08.445Z,23.53
2018-09-22T08:21:15.176Z,23.30
2018-09-22T08:26:20.273Z,22.13
2018-09-22T08:31:25.228Z,20.57
2018-09-22T08:36:30.473Z,17.97
2018-09-22T08:41:35.368Z,17.73
2018-09-22T08:46:40.288Z,19.97
2018-09-22T08:51:45.189Z,19.90
2018-09-22T08:56:50.228Z,22.93
2018-09-22T09:01:56.291Z,17.90
2018-09-22T09:07:01.976Z,19.97
2018-09-22T09:12:09.318Z,24.43
2018-09-22T09:17:14.303Z,20.70
2018-09-22T09:22:19.291Z,18.83
2018-09-22T09:27:24.443Z,16.37
2018-09-22T09:32:29.434Z,16.13
2018-09-22T09:37:34.340Z,17.17
2018-09-22T09:42:40.810Z,18.30
2018-09-22T09:47:47.168Z,17.70
2018-09-22T09:52:52.401Z,14.93
2018-09-22T09:57:57.270Z,14.23
2018-09-22T10:03:02.203Z,16.20
2018-09-22T10:08:07.505Z,15.73
2018-09-22T10:13:12.461Z,15.73
2018-09-22T10:18:17.391Z,15.27
2018-09-22T10:23:22.304Z,17.07
2018-09-22T10:28:27.435Z,17.17
2018-09-22T10:33:33.037Z,17.00
2018-09-22T10:38:37.983Z,14.87
2018-09-22T10:43:43.045Z,15.43
2018-09-22T10:48:48.836Z,14.55
2018-09-22T10:53:54.279Z,15.32
2018-09-22T10:58:59.561Z,14.50
2018-09-22T11:04:04.493Z,13.75
2018-09-22T11:09:09.508Z,14.15
2018-09-22T11:14:15.173Z,15.00
2018-09-22T11:19:20.236Z,15.30
2018-09-22T11:24:26.584Z,13.88
2018-09-22T11:29:31.868Z,14.93
2018-09-22T11:34:36.989Z,14.07
2018-09-22T11:39:41.939Z,12.82
2018-09-22T11:44:46.914Z,11.73
2018-09-22T11:49:52.001Z,9.18
2018-09-22T11:54:57.072Z,10.35
2018-09-22T12:00:02.549Z,8.53
2018-09-22T12:05:07.653Z,8.83
2018-09-22T12:10:15.068Z,9.03
2018-09-22T12:15:20.368Z,7.33
2018-09-22T12:20:25.304Z,8.03
2018-09-22T12:25:30.283Z,8.48
2018-09-22T12:30:35.380Z,7.65
2018-09-22T12:35:40.525Z,8.35
2018-09-22T12:40:45.661Z,8.40
2018-09-22T12:45:50.597Z,8.43
2018-09-22T12:50:55.993Z,7.35
2018-09-22T12:56:01.978Z,7.28
2018-09-22T13:01:08.642Z,7.25
2018-09-22T13:06:16.696Z,8.05
2018-09-22T13:11:21.920Z,8.43
2018-09-22T13:16:26.838Z,8.58
2018-09-22T13:21:31.673Z,8.58
2018-09-22T13:26:36.788Z,11.12
2018-09-22T13:31:41.712Z,6.45
2018-09-22T13:36:46.683Z,5.90
2018-09-22T13:41:52.185Z,5.17
2018-09-22T13:47:01.442Z,4.62
2018-09-22T13:52:07.054Z,4.92
2018-09-22T13:57:12.005Z,4.22
2018-09-22T14:02:17.275Z,4.20
2018-09-22T14:07:22.175Z,4.67
2018-09-22T14:12:27.204Z,3.65
2018-09-22T14:17:32.282Z,3.65
2018-09-22T14:22:37.213Z,4.42
2018-09-22T14:27:42.185Z,2.72
2018-09-22T14:32:49.938Z,2.47
2018-09-22T14:37:55.148Z,2.65
2018-09-22T14:42:59.997Z,2.70
2018-09-22T14:48:05.145Z,3.50
2018-09-22T14:53:10.147Z,2.80
2018-09-22T14:58:15.251Z,2.90
2018-09-22T15:03:20.236Z,2.95
2018-09-22T15:08:25.457Z,3.40
2018-09-22T15:13:30.528Z,3.75
2018-09-22T15:18:35.415Z,3.20
2018-09-22T15:23:40.392Z,2.85
2018-09-22T15:28:45.560Z,3.17
2018-09-22T15:33:50.538Z,4.47
2018-09-22T15:38:57.844Z,3.15
2018-09-22T15:44:02.888Z,3.50
2018-09-22T15:49:08.296Z,3.80
2018-09-22T15:54:13.192Z,3.52
2018-09-22T15:59:18.151Z,3.45
2018-09-22T16:04:23.252Z,3.25
2018-09-22T16:09:28.148Z,4.45
2018-09-22T16:14:33.174Z,3.83
2018-09-22T16:19:38.556Z,3.80
2018-09-22T16:24:43.560Z,3.93
2018-09-22T16:29:48.460Z,4.20
2018-09-22T16:34:53.480Z,4.50
2018-09-22T16:40:01.475Z,4.27
2018-09-22T16:45:06.473Z,3.80
2018-09-22T16:50:12.351Z,3.97
2018-09-22T16:55:17.493Z,4.73
2018-09-22T17:00:22.477Z,3.80
2018-09-22T17:05:27.526Z,4.13
2018-09-22T17:10:32.487Z,4.67
2018-09-22T17:15:37.424Z,4.77
2018-09-22T17:20:42.441Z,5.17
2018-09-22T17:25:47.293Z,6.47
2018-09-22T17:30:53.241Z,7.57
2018-09-22T18:18:49.682Z,8.53
2018-09-22T18:23:54.918Z,10.73
2018-09-22T18:29:18.546Z,8.50
2018-09-22T18:34:25.746Z,7.73
2018-09-22T18:39:30.634Z,8.20
2018-09-22T18:44:35.655Z,8.13
2018-09-22T18:49:40.864Z,8.33
2018-09-22T18:54:45.812Z,7.80
2018-09-22T18:59:51.379Z,10.53
2018-09-22T19:04:57.056Z,7.80
2018-09-22T19:10:02.004Z,8.23
2018-09-22T19:15:11.723Z,8.57
2018-09-22T19:21:20.113Z,8.47
2018-09-22T19:26:28.668Z,8.70
2018-09-22T19:31:38.499Z,8.43
2018-09-22T19:36:53.135Z,8.30
2018-09-22T19:42:01.830Z,8.10
2018-09-22T19:47:15.189Z,8.50
2018-09-22T19:52:24.977Z,10.23
2018-09-22T19:57:30.256Z,11.13
2018-09-22T20:02:35.343Z,8.67
2018-09-22T20:07:40.565Z,10.70
2018-09-22T20:12:45.763Z,10.53
2018-09-22T20:17:51.123Z,11.17
2018-09-22T20:22:57.638Z,10.47
2018-09-22T20:28:02.898Z,9.97
2018-09-22T20:33:07.858Z,9.47
2018-09-22T20:38:13.273Z,10.27
2018-09-22T20:43:20.439Z,10.20
2018-09-22T20:48:25.468Z,9.97
2018-09-22T20:53:30.896Z,10.80
2018-09-22T20:58:35.934Z,10.07
2018-09-22T21:03:41.161Z,9.77
2018-09-22T21:08:46.122Z,9.77
2018-09-22T21:13:52.002Z,8.37
2018-09-22T21:18:57.011Z,9.27
2018-09-22T21:24:02.643Z,11.33
2018-09-22T21:29:07.656Z,9.77
2018-09-22T21:34:12.568Z,9.40
2018-09-22T21:39:18.228Z,9.17
2018-09-22T21:44:23.148Z,10.00
2018-09-22T21:49:28.137Z,9.43
2018-09-22T21:54:33.991Z,8.70
2018-09-22T21:59:39.033Z,9.03
2018-09-22T22:04:43.992Z,8.80
2018-09-22T22:09:49.248Z,9.43
2018-09-22T22:14:55.125Z,9.07
2018-09-22T22:20:00.501Z,8.63
2018-09-22T22:25:05.643Z,8.80
2018-09-22T22:30:11.740Z,9.87
2018-09-22T22:35:16.681Z,8.87
2018-09-22T22:40:22.209Z,8.93
2018-09-22T22:45:27.513Z,9.07
2018-09-22T22:50:32.436Z,8.03
2018-09-22T22:55:38.120Z,8.47
2018-09-22T23:00:43.605Z,9.33
2018-09-22T23:05:49.311Z,8.43
2018-09-22T23:10:54.405Z,8.67
2018-09-22T23:15:59.340Z,8.20
2018-09-22T23:21:04.721Z,8.57
2018-09-22T23:26:11.654Z,8.47
2018-09-22T23:31:16.693Z,8.80
2018-09-22T23:36:23.214Z,9.17
2018-09-22T23:41:31.816Z,9.87
2018-09-22T23:46:40.100Z,9.40
2018-09-22T23:51:45.074Z,8.80
2018-09-22T23:56:49.995Z,9.33
